createdAt,value
2022-12-23T00:01:19.646Z,15.80
2022-12-23T00:03:46.420Z,16.98
2022-12-23T00:06:15.750Z,16.17
2022-12-23T00:08:43.265Z,15.73
2022-12-23T00:11:18.924Z,18.92
2022-12-23T00:14:04.638Z,20.48
2022-12-23T00:16:31.411Z,18.40
2022-12-23T00:18:57.952Z,19.92
2022-12-23T00:21:24.471Z,21.45
2022-12-23T00:23:51.884Z,18.13
2022-12-23T00:26:24.617Z,17.88
2022-12-23T00:28:51.913Z,17.88
2022-12-23T00:31:19.969Z,20.80
2022-12-23T00:33:48.824Z,19.98
2022-12-23T00:36:24.602Z,21.75
2022-12-23T00:39:10.556Z,18.60
2022-12-23T00:41:56.224Z,18.83
2022-12-23T00:44:23.183Z,16.95
2022-12-23T00:46:49.947Z,19.33
2022-12-23T00:49:37.032Z,17.17
2022-12-23T00:52:05.312Z,17.67
2022-12-23T00:54:34.616Z,17.25
2022-12-23T00:57:01.718Z,15.32
2022-12-23T00:59:28.203Z,18.67
2022-12-23T01:02:13.417Z,17.92
2022-12-23T01:04:58.684Z,17.85
2022-12-23T01:07:26.010Z,15.73
2022-12-23T01:09:52.636Z,14.73
2022-12-23T01:12:19.741Z,13.18
2022-12-23T01:14:46.389Z,15.68
2022-12-23T01:17:13.226Z,13.00
2022-12-23T01:19:39.982Z,15.73
2022-12-23T01:22:06.530Z,12.07
2022-12-23T01:24:33.171Z,13.57
2022-12-23T01:27:00.350Z,13.25
2022-12-23T01:29:26.973Z,13.45
2022-12-23T01:31:53.626Z,12.52
2022-12-23T01:34:20.226Z,17.40
2022-12-23T01:36:46.798Z,15.93
2022-12-23T01:39:13.384Z,13.10
2022-12-23T01:41:58.340Z,13.90
2022-12-23T01:44:51.078Z,14.30
2022-12-23T01:47:33.911Z,11.73
2022-12-23T01:50:07.255Z,14.65
2022-12-23T01:52:38.513Z,18.35
2022-12-23T01:55:05.607Z,17.17
2022-12-23T01:57:32.531Z,14.75
2022-12-23T02:00:17.537Z,15.18
2022-12-23T02:03:03.174Z,17.30
2022-12-23T02:05:29.847Z,16.77
2022-12-23T02:08:15.595Z,14.35
2022-12-23T02:11:08.553Z,13.77
2022-12-23T02:16:17.459Z,10.65
2022-12-23T02:19:10.433Z,9.68
2022-12-23T02:24:42.197Z,15.10
2022-12-23T02:27:10.601Z,13.80
2022-12-23T02:32:41.653Z,15.52
2022-12-23T02:35:33.495Z,13.60
2022-12-23T02:38:10.934Z,14.52
2022-12-23T02:40:49.729Z,14.38
2022-12-23T02:43:25.576Z,13.65
2022-12-23T02:46:01.583Z,13.75
2022-12-23T02:48:52.975Z,12.40
2022-12-23T02:51:22.874Z,16.40
2022-12-23T02:53:54.432Z,11.55
2022-12-23T02:56:24.261Z,15.77
2022-12-23T02:59:13.939Z,12.93
2022-12-23T03:01:43.002Z,11.93
2022-12-23T03:04:09.741Z,14.90
2022-12-23T03:06:42.111Z,13.80
2022-12-23T03:09:09.059Z,14.50
2022-12-23T03:11:41.670Z,15.18
2022-12-23T03:14:26.513Z,15.43
2022-12-23T03:17:40.527Z,20.45
2022-12-23T03:20:19.510Z,13.73
2022-12-23T03:22:49.414Z,14.93
2022-12-23T03:25:31.092Z,15.02
2022-12-23T03:28:19.260Z,13.77
2022-12-23T03:30:51.430Z,16.70
2022-12-23T03:33:28.214Z,17.13
2022-12-23T03:36:07.351Z,21.38
2022-12-23T03:38:39.263Z,15.52
2022-12-23T03:41:10.349Z,17.35
2022-12-23T03:43:46.739Z,15.75
2022-12-23T03:46:23.381Z,18.30
2022-12-23T03:48:54.148Z,16.05
2022-12-23T03:52:01.636Z,17.35
2022-12-23T03:54:32.454Z,16.75
2022-12-23T03:57:03.565Z,15.73
2022-12-23T03:59:38.035Z,16.80
2022-12-23T04:02:33.615Z,15.75
2022-12-23T04:05:21.759Z,16.75
2022-12-23T04:07:48.213Z,15.82
2022-12-23T04:10:15.519Z,19.55
2022-12-23T04:12:42.365Z,16.25
2022-12-23T04:15:13.090Z,17.08
2022-12-23T04:17:40.329Z,15.15
2022-12-23T04:20:07.656Z,17.65
2022-12-23T04:22:34.207Z,15.07
2022-12-23T04:25:00.794Z,14.52
2022-12-23T04:27:27.321Z,16.90
2022-12-23T04:29:53.851Z,16.30
2022-12-23T04:32:20.311Z,14.55
2022-12-23T04:34:46.743Z,14.98
2022-12-23T04:37:13.307Z,14.43
2022-12-23T04:39:39.803Z,15.18
2022-12-23T04:42:06.333Z,12.27
2022-12-23T04:44:32.904Z,13.80
2022-12-23T04:46:59.452Z,15.85
2022-12-23T04:49:26.004Z,14.75
2022-12-23T04:51:52.519Z,11.93
2022-12-23T04:54:19.043Z,12.90
2022-12-23T04:56:45.544Z,14.80
2022-12-23T04:59:12.168Z,14.00
2022-12-23T05:01:38.935Z,13.20
2022-12-23T05:04:05.609Z,13.65
2022-12-23T05:06:32.132Z,15.68
2022-12-23T05:08:58.664Z,13.77
2022-12-23T05:11:25.187Z,13.25
2022-12-23T05:13:51.687Z,12.88
2022-12-23T05:16:18.520Z,15.00
2022-12-23T05:18:45.115Z,16.73
2022-12-23T05:21:11.873Z,14.50
2022-12-23T05:23:39.014Z,14.32
2022-12-23T05:26:05.571Z,16.05
2022-12-23T05:28:32.158Z,17.08
2022-12-23T05:31:04.552Z,14.25
2022-12-23T05:33:33.570Z,15.00
2022-12-23T05:36:00.686Z,16.10
2022-12-23T05:38:27.653Z,17.23
2022-12-23T05:40:54.222Z,15.35
2022-12-23T05:43:21.214Z,15.32
2022-12-23T05:45:48.121Z,13.05
2022-12-23T05:48:14.713Z,15.77
2022-12-23T05:50:44.219Z,15.40
2022-12-23T05:53:10.835Z,13.93
2022-12-23T05:55:37.437Z,14.82
2022-12-23T05:58:04.032Z,18.58
2022-12-23T06:00:30.604Z,13.40
2022-12-23T06:02:57.309Z,13.95
2022-12-23T06:05:24.017Z,12.50
2022-12-23T06:07:50.812Z,13.95
2022-12-23T06:10:17.709Z,13.15
2022-12-23T06:12:45.453Z,15.70
2022-12-23T06:15:12.584Z,11.65
2022-12-23T06:17:39.155Z,13.13
2022-12-23T06:20:06.518Z,11.75
2022-12-23T06:22:33.103Z,11.65
2022-12-23T06:24:59.643Z,10.63
2022-12-23T06:27:26.184Z,11.27
2022-12-23T06:29:52.722Z,9.40
2022-12-23T06:32:19.237Z,10.23
2022-12-23T06:34:46.720Z,10.45
2022-12-23T06:37:13.337Z,9.20
2022-12-23T06:39:39.841Z,11.35
2022-12-23T06:42:06.512Z,10.48
2022-12-23T06:44:33.080Z,11.70
2022-12-23T06:46:59.606Z,10.55
2022-12-23T06:49:26.393Z,11.27
2022-12-23T06:51:52.910Z,11.85
2022-12-23T06:54:19.503Z,10.07
2022-12-23T06:56:45.962Z,11.68
2022-12-23T06:59:12.566Z,11.27
2022-12-23T07:01:40.593Z,9.88
2022-12-23T07:04:07.573Z,12.82
2022-12-23T07:06:34.205Z,9.40
2022-12-23T07:09:01.103Z,12.38
2022-12-23T07:11:27.573Z,11.52
2022-12-23T07:13:54.116Z,12.65
2022-12-23T07:16:20.738Z,20.13
2022-12-23T07:18:47.321Z,18.15
2022-12-23T07:21:24.586Z,17.73
2022-12-23T07:23:55.069Z,20.63
2022-12-23T07:26:21.631Z,18.02
2022-12-23T07:28:48.997Z,22.33
2022-12-23T07:31:15.883Z,24.08
2022-12-23T07:33:42.665Z,19.20
2022-12-23T07:36:09.570Z,19.13
2022-12-23T07:38:36.113Z,17.27
2022-12-23T07:41:02.548Z,20.67
2022-12-23T07:43:29.064Z,16.25
2022-12-23T07:45:59.826Z,15.18
2022-12-23T07:48:27.462Z,16.45
2022-12-23T07:51:00.509Z,15.35
2022-12-23T07:53:27.268Z,14.73
2022-12-23T07:55:56.626Z,13.45
2022-12-23T07:58:24.003Z,14.07
2022-12-23T08:00:50.723Z,14.30
2022-12-23T08:03:17.468Z,14.27
2022-12-23T08:05:44.292Z,16.10
2022-12-23T08:08:10.924Z,13.70
2022-12-23T08:10:41.401Z,13.80
2022-12-23T08:13:11.035Z,15.70
2022-12-23T08:15:37.596Z,16.60
2022-12-23T08:18:04.271Z,16.42
2022-12-23T08:20:30.786Z,21.70
2022-12-23T08:22:57.273Z,19.17
2022-12-23T08:25:23.783Z,20.73
2022-12-23T08:27:51.335Z,18.73
2022-12-23T08:30:18.867Z,18.38
2022-12-23T08:32:45.427Z,18.33
2022-12-23T08:35:12.051Z,18.65
2022-12-23T08:37:38.663Z,23.83
2022-12-23T08:40:05.724Z,20.42
2022-12-23T08:42:32.255Z,19.27
2022-12-23T08:44:58.887Z,18.20
2022-12-23T08:47:25.336Z,17.58
2022-12-23T08:49:51.870Z,20.33
2022-12-23T08:52:18.399Z,19.80
2022-12-23T08:54:44.999Z,20.23
2022-12-23T08:57:11.529Z,22.95
2022-12-23T08:59:38.069Z,18.70
2022-12-23T09:02:04.718Z,24.65
2022-12-23T09:04:31.300Z,19.77
2022-12-23T09:06:57.858Z,25.13
2022-12-23T09:09:24.714Z,22.88
2022-12-23T09:11:51.216Z,23.48
2022-12-23T09:14:17.834Z,25.20
2022-12-23T09:16:44.354Z,22.48
2022-12-23T09:19:10.935Z,25.00
2022-12-23T09:21:37.564Z,26.63
2022-12-23T09:24:04.334Z,25.02
2022-12-23T09:26:31.656Z,23.80
2022-12-23T09:28:58.660Z,26.55
2022-12-23T09:31:29.239Z,22.38
2022-12-23T09:33:59.015Z,24.10
2022-12-23T09:36:25.679Z,24.50
2022-12-23T09:38:56.950Z,25.25
2022-12-23T09:41:48.922Z,27.92
2022-12-23T09:44:33.920Z,26.15
2022-12-23T09:47:05.697Z,31.00
2022-12-23T09:49:33.772Z,25.70
2022-12-23T09:52:03.980Z,36.92
2022-12-23T09:54:41.129Z,33.63
2022-12-23T09:57:32.628Z,35.72
2022-12-23T10:00:15.500Z,41.47
2022-12-23T10:03:00.779Z,55.55
2022-12-23T10:05:39.524Z,49.72
2022-12-23T10:08:27.978Z,37.58
2022-12-23T10:11:00.317Z,42.72
2022-12-23T10:13:41.033Z,33.05
2022-12-23T10:18:57.819Z,34.92
2022-12-23T10:21:47.690Z,26.92
2022-12-23T10:24:23.684Z,26.40
2022-12-23T10:26:59.983Z,28.65
2022-12-23T10:29:30.840Z,27.52
2022-12-23T10:32:16.037Z,28.77
2022-12-23T10:34:56.368Z,33.42
2022-12-23T10:37:27.385Z,30.17
2022-12-23T10:40:22.685Z,30.27
2022-12-23T10:43:20.821Z,23.85
2022-12-23T10:45:51.522Z,25.45
2022-12-23T10:48:20.959Z,26.05
2022-12-23T10:50:58.444Z,22.63
2022-12-23T10:53:54.053Z,23.88
2022-12-23T10:56:21.097Z,21.02
2022-12-23T10:58:52.734Z,31.08
2022-12-23T11:01:26.605Z,23.70
2022-12-23T11:06:36.856Z,26.92
2022-12-23T11:09:05.658Z,25.50
2022-12-23T11:11:54.164Z,24.67
2022-12-23T11:14:35.839Z,22.58
2022-12-23T11:17:04.981Z,23.48
2022-12-23T11:21:59.758Z,24.55
2022-12-23T11:24:35.434Z,26.25
2022-12-23T11:27:07.833Z,25.33
2022-12-23T11:29:38.702Z,31.35
2022-12-23T11:32:26.508Z,28.45
2022-12-23T11:34:55.641Z,31.67
2022-12-23T11:37:42.120Z,34.58
2022-12-23T11:40:37.584Z,44.03
2022-12-23T11:43:12.832Z,38.83
2022-12-23T11:45:39.711Z,36.30
2022-12-23T11:48:25.996Z,30.05
2022-12-23T11:51:01.845Z,30.33
2022-12-23T11:53:28.945Z,36.45
2022-12-23T11:56:10.077Z,34.70
2022-12-23T11:58:45.651Z,37.03
2022-12-23T12:01:23.677Z,45.50
2022-12-23T12:03:55.732Z,37.40
2022-12-23T12:06:23.330Z,37.50
2022-12-23T12:08:52.625Z,36.90
2022-12-23T12:11:44.356Z,37.45
2022-12-23T12:14:30.988Z,40.70
2022-12-23T12:17:22.405Z,41.35
2022-12-23T12:20:00.777Z,47.80
2022-12-23T12:22:38.003Z,46.20
2022-12-23T12:25:20.635Z,45.63
2022-12-23T12:27:57.907Z,36.92
2022-12-23T12:30:32.663Z,49.83
2022-12-23T12:33:05.323Z,38.05
2022-12-23T12:35:49.384Z,35.90
2022-12-23T12:38:25.545Z,36.42
2022-12-23T12:41:03.390Z,34.67
2022-12-23T12:43:48.565Z,35.42
2022-12-23T12:46:31.290Z,38.83
2022-12-23T12:49:16.322Z,33.05
2022-12-23T12:51:42.767Z,35.92
2022-12-23T12:54:35.314Z,37.88
2022-12-23T12:57:02.384Z,29.73
2022-12-23T12:59:33.930Z,31.30
2022-12-23T13:02:28.441Z,28.75
2022-12-23T13:05:20.497Z,32.88
2022-12-23T13:08:11.549Z,29.33
2022-12-23T13:10:59.687Z,31.67
2022-12-23T13:13:45.139Z,32.75
2022-12-23T13:16:33.702Z,30.73
2022-12-23T13:19:12.263Z,30.80
2022-12-23T13:21:49.971Z,32.75
2022-12-23T13:24:32.676Z,33.80
2022-12-23T13:27:05.047Z,37.28
2022-12-23T13:29:40.672Z,34.63
2022-12-23T13:32:25.998Z,30.42
2022-12-23T13:35:38.523Z,34.03
2022-12-23T13:38:42.214Z,32.08
2022-12-23T13:41:40.001Z,28.15
2022-12-23T13:44:10.700Z,32.90
2022-12-23T13:47:06.422Z,29.67
2022-12-23T13:50:23.758Z,26.25
2022-12-23T13:53:01.775Z,28.45
2022-12-23T13:55:58.795Z,23.77
2022-12-23T13:58:31.179Z,26.63
2022-12-23T14:01:18.919Z,28.92
2022-12-23T14:03:49.625Z,26.27
2022-12-23T14:06:25.235Z,31.67
2022-12-23T14:08:53.521Z,29.10
2022-12-23T14:11:28.865Z,34.17
2022-12-23T14:14:02.594Z,32.08
2022-12-23T14:17:02.715Z,34.70
2022-12-23T14:19:57.335Z,32.60
2022-12-23T14:22:36.155Z,37.30
2022-12-23T14:25:41.168Z,33.15
2022-12-23T14:30:53.317Z,32.35
2022-12-23T14:33:26.377Z,29.15
2022-12-23T14:35:54.754Z,32.63
2022-12-23T14:38:24.636Z,29.80
2022-12-23T14:41:23.363Z,28.58
2022-12-23T14:43:56.161Z,25.67
2022-12-23T14:46:35.224Z,25.13
2022-12-23T14:49:29.836Z,26.45
2022-12-23T14:51:50.973Z,26.27
2022-12-23T14:54:36.664Z,26.92
2022-12-23T14:57:13.742Z,26.80
2022-12-23T15:00:01.426Z,26.67
2022-12-23T15:02:35.984Z,26.27
2022-12-23T15:05:03.942Z,26.20
2022-12-23T15:07:43.487Z,22.98
2022-12-23T15:10:22.307Z,26.42
2022-12-23T15:13:02.859Z,22.73
2022-12-23T15:15:30.992Z,25.77
2022-12-23T15:18:05.182Z,24.98
2022-12-23T15:20:31.912Z,28.95
2022-12-23T15:23:02.288Z,27.27
2022-12-23T15:25:33.553Z,25.33
2022-12-23T15:28:03.800Z,26.10
2022-12-23T15:30:47.745Z,22.77
2022-12-23T15:34:00.562Z,23.35
2022-12-23T15:36:09.879Z,18.67
2022-12-23T15:38:38.754Z,23.00
2022-12-23T15:41:14.408Z,22.95
2022-12-23T15:43:42.208Z,21.92
2022-12-23T15:46:28.980Z,21.67
2022-12-23T15:48:56.678Z,67.00
2022-12-23T15:54:29.666Z,24.58
2022-12-23T15:56:58.764Z,21.88
2022-12-23T15:59:38.326Z,21.83
2022-12-23T16:05:08.140Z,21.33
2022-12-23T16:07:38.140Z,22.13
2022-12-23T16:10:17.158Z,31.10
2022-12-23T16:12:44.394Z,25.55
2022-12-23T16:15:20.176Z,51.60
2022-12-23T16:17:46.753Z,29.52
2022-12-23T16:20:24.123Z,34.75
2022-12-23T16:22:54.233Z,29.40
2022-12-23T16:25:31.199Z,27.08
2022-12-23T16:28:13.345Z,27.13
2022-12-23T16:30:43.384Z,27.58
2022-12-23T16:33:37.443Z,23.23
2022-12-23T16:36:25.311Z,20.77
2022-12-23T16:38:53.297Z,24.25
2022-12-23T16:41:20.534Z,22.73
2022-12-23T16:43:52.022Z,23.77
2022-12-23T16:46:21.223Z,18.67
2022-12-23T16:49:01.869Z,23.33
2022-12-23T16:51:33.789Z,18.08
2022-12-23T16:54:01.205Z,19.02
2022-12-23T16:56:37.987Z,17.77
2022-12-23T16:59:05.016Z,17.13
2022-12-23T17:01:44.851Z,18.08
2022-12-23T17:04:11.717Z,26.85
2022-12-23T17:06:38.795Z,22.65
2022-12-23T17:09:07.823Z,20.95
2022-12-23T17:11:39.288Z,20.25
2022-12-23T17:14:13.605Z,21.05
2022-12-23T17:16:42.126Z,24.17
2022-12-23T17:19:08.820Z,25.50
2022-12-23T17:21:39.182Z,22.35
2022-12-23T17:24:24.701Z,26.02
2022-12-23T17:26:52.571Z,22.10
2022-12-23T17:29:19.719Z,25.25
2022-12-23T17:31:48.073Z,29.80
2022-12-23T17:36:49.238Z,32.85
2022-12-23T17:39:16.425Z,27.00
2022-12-23T17:41:43.415Z,25.27
2022-12-23T17:44:14.071Z,25.40
2022-12-23T17:46:41.027Z,22.58
2022-12-23T17:49:08.389Z,25.33
2022-12-23T17:51:34.922Z,25.42
2022-12-23T17:54:02.231Z,24.92
2022-12-23T17:56:28.910Z,24.70
2022-12-23T17:58:55.491Z,24.10
2022-12-23T18:01:32.377Z,22.90
2022-12-23T18:04:00.000Z,24.40
2022-12-23T18:06:28.630Z,23.15
2022-12-23T18:08:57.075Z,26.65
2022-12-23T18:14:02.364Z,20.15
2022-12-23T18:16:30.084Z,25.50
2022-12-23T18:18:57.067Z,21.85
2022-12-23T18:21:29.017Z,20.55
2022-12-23T18:23:58.743Z,21.73
2022-12-23T18:26:25.829Z,22.25
2022-12-23T18:28:54.365Z,21.17
2022-12-23T18:31:24.349Z,22.45
2022-12-23T18:33:51.415Z,18.58
2022-12-23T18:36:22.558Z,21.08
2022-12-23T18:38:49.349Z,24.73
2022-12-23T18:41:15.992Z,23.80
2022-12-23T18:43:42.551Z,30.38
2022-12-23T18:46:09.047Z,33.17
2022-12-23T18:48:35.592Z,39.75
2022-12-23T18:51:02.713Z,35.47
2022-12-23T18:53:29.172Z,39.28
2022-12-23T18:55:55.898Z,38.47
2022-12-23T18:58:23.094Z,37.22
2022-12-23T19:00:50.808Z,35.40
2022-12-23T19:03:24.818Z,49.70
2022-12-23T19:05:52.946Z,30.63
2022-12-23T19:08:26.130Z,30.00
2022-12-23T19:10:53.877Z,39.40
2022-12-23T19:13:20.632Z,37.55
2022-12-23T19:15:47.277Z,32.45
2022-12-23T19:18:19.496Z,34.13
2022-12-23T19:20:47.228Z,30.15
2022-12-23T19:23:14.498Z,40.90
2022-12-23T19:25:43.495Z,29.95
2022-12-23T19:28:12.389Z,45.25
2022-12-23T19:30:42.574Z,33.13
2022-12-23T19:33:09.269Z,35.90
2022-12-23T19:35:35.985Z,36.22
2022-12-23T19:38:02.515Z,30.13
2022-12-23T19:40:29.554Z,35.42
2022-12-23T19:42:56.405Z,35.00
2022-12-23T19:45:23.004Z,34.95
2022-12-23T19:47:49.459Z,32.45
2022-12-23T19:50:15.977Z,29.88
2022-12-23T19:52:42.524Z,32.45
2022-12-23T19:55:10.189Z,38.80
2022-12-23T19:57:36.964Z,42.97
2022-12-23T20:00:04.970Z,35.10
2022-12-23T20:02:31.557Z,32.33
2022-12-23T20:04:58.183Z,32.45
2022-12-23T20:07:24.685Z,38.22
2022-12-23T20:09:51.578Z,33.92
2022-12-23T20:12:18.143Z,40.03
2022-12-23T20:14:44.697Z,39.33
2022-12-23T20:17:11.230Z,30.52
2022-12-23T20:19:43.849Z,32.25
2022-12-23T20:22:12.536Z,28.70
2022-12-23T20:24:39.110Z,35.25
2022-12-23T20:27:10.964Z,41.22
2022-12-23T20:29:38.473Z,35.72
2022-12-23T20:32:05.235Z,33.30
2022-12-23T20:34:36.687Z,34.15
2022-12-23T20:37:05.554Z,36.45
2022-12-23T20:39:32.056Z,34.50
2022-12-23T20:41:58.541Z,26.13
2022-12-23T20:44:34.569Z,28.23
2022-12-23T20:47:02.614Z,28.33
2022-12-23T20:49:29.486Z,23.77
2022-12-23T20:51:56.029Z,22.77
2022-12-23T20:54:29.681Z,28.17
2022-12-23T20:56:58.706Z,22.15
2022-12-23T20:59:25.331Z,17.90
2022-12-23T21:01:52.105Z,24.85
2022-12-23T21:04:18.959Z,22.48
2022-12-23T21:06:45.720Z,22.85
2022-12-23T21:09:14.542Z,18.60
2022-12-23T21:11:44.024Z,13.52
2022-12-23T21:14:11.170Z,15.82
2022-12-23T21:16:38.755Z,13.63
2022-12-23T21:19:07.492Z,18.58
2022-12-23T21:21:34.151Z,16.00
2022-12-23T21:24:04.587Z,15.55
2022-12-23T21:26:32.935Z,23.67
2022-12-23T21:29:00.935Z,14.60
2022-12-23T21:31:29.720Z,15.73
2022-12-23T21:33:57.144Z,20.77
2022-12-23T21:36:26.519Z,19.13
2022-12-23T21:38:53.486Z,13.98
2022-12-23T21:41:22.823Z,14.55
2022-12-23T21:43:49.980Z,13.63
2022-12-23T21:46:18.754Z,16.48
2022-12-23T21:48:45.874Z,18.58
2022-12-23T21:51:24.642Z,12.82
2022-12-23T21:53:53.185Z,15.35
2022-12-23T21:56:25.701Z,19.60
2022-12-23T21:59:08.459Z,17.85
2022-12-23T22:01:35.345Z,17.02
2022-12-23T22:04:02.298Z,16.08
2022-12-23T22:06:32.099Z,18.40
2022-12-23T22:08:59.123Z,11.23
2022-12-23T22:11:28.602Z,19.48
2022-12-23T22:13:59.532Z,17.92
2022-12-23T22:16:28.162Z,14.23
2022-12-23T22:18:55.972Z,11.57
2022-12-23T22:21:24.890Z,16.38
2022-12-23T22:23:52.710Z,20.63
2022-12-23T22:26:25.427Z,12.70
2022-12-23T22:28:55.514Z,21.63
2022-12-23T22:31:36.871Z,18.45
2022-12-23T22:34:04.252Z,25.02
2022-12-23T22:36:30.936Z,14.05
2022-12-23T22:38:59.331Z,19.42
2022-12-23T22:43:55.496Z,15.68
2022-12-23T22:46:22.766Z,19.80
2022-12-23T22:48:49.535Z,14.93
2022-12-23T22:51:24.694Z,14.45
2022-12-23T22:53:51.755Z,16.98
2022-12-23T22:56:20.134Z,12.55
2022-12-23T23:01:34.099Z,15.88
2022-12-23T23:04:02.703Z,17.63
2022-12-23T23:06:37.548Z,16.65
2022-12-23T23:09:06.157Z,17.30
2022-12-23T23:11:32.687Z,16.75
2022-12-23T23:13:59.741Z,18.05
2022-12-23T23:16:26.599Z,19.80
2022-12-23T23:18:53.995Z,18.25
2022-12-23T23:21:21.474Z,17.67
2022-12-23T23:23:49.092Z,16.45
2022-12-23T23:26:16.513Z,19.25
2022-12-23T23:28:43.732Z,15.85
2022-12-23T23:33:57.987Z,16.83
2022-12-23T23:36:25.060Z,19.50
2022-12-23T23:38:51.685Z,20.42
2022-12-23T23:41:22.899Z,15.15
2022-12-23T23:43:50.622Z,21.05
2022-12-23T23:46:17.268Z,14.07
2022-12-23T23:48:43.952Z,12.13
2022-12-23T23:51:10.453Z,15.90
2022-12-23T23:53:37.024Z,16.05
2022-12-23T23:56:06.003Z,14.13
2022-12-23T23:58:33.613Z,18.30
